Time;durP1;ratioP1;P1;durP2;ratioP2;P2;SDS_P1;SDS_P2;PMS_P1;PMS_P2;Temp;Humidity;BMP_temperature;BMP_pressure;BME280_temperature;BME280_humidity;BME280_pressure;Samples;Min_cycle;Max_cycle;Signal;HPM_P1;HPM_P2
2022/01/07 00:02:00;;;;;;;6.50;4.40;;;;;;;;;;5032313;28;20644;-68
2022/01/07 00:04:28;;;;;;;6.90;4.40;;;;;;;;;;5029821;28;20222;-69
2022/01/07 00:06:55;;;;;;;8.03;4.43;;;;;;;;;;5030500;28;20241;-68
2022/01/07 00:09:21;;;;;;;8.93;4.63;;;;;;;;;;5030976;28;20292;-69
2022/01/07 00:11:47;;;;;;;7.10;4.37;;;;;;;;;;5029424;28;20235;-69
2022/01/07 00:14:14;;;;;;;12.80;4.63;;;;;;;;;;5029505;28;20219;-68
2022/01/07 00:16:40;;;;;;;6.47;3.47;;;;;;;;;;5031690;28;20689;-68
2022/01/07 00:19:06;;;;;;;8.83;4.07;;;;;;;;;;5029145;28;20275;-68
2022/01/07 00:21:34;;;;;;;13.70;3.83;;;;;;;;;;5030429;28;20272;-69
2022/01/07 00:24:01;;;;;;;11.40;4.40;;;;;;;;;;5030869;28;20264;-69
2022/01/07 00:26:28;;;;;;;9.80;3.70;;;;;;;;;;5029764;28;20885;-69
2022/01/07 00:28:54;;;;;;;8.73;4.90;;;;;;;;;;5030692;28;20293;-69
2022/01/07 00:31:20;;;;;;;6.07;3.40;;;;;;;;;;5031305;28;20302;-69
2022/01/07 00:33:47;;;;;;;6.53;3.83;;;;;;;;;;5030372;28;20206;-68
2022/01/07 00:36:13;;;;;;;8.33;3.53;;;;;;;;;;5031070;28;20238;-68
2022/01/07 00:38:41;;;;;;;7.97;4.03;;;;;;;;;;5029951;28;20297;-68
2022/01/07 00:41:07;;;;;;;8.90;3.67;;;;;;;;;;5031333;28;20237;-69
2022/01/07 00:43:34;;;;;;;11.43;4.00;;;;;;;;;;5031133;28;20245;-69
2022/01/07 00:46:00;;;;;;;6.57;3.07;;;;;;;;;;5030873;28;20207;-69
2022/01/07 00:48:27;;;;;;;7.30;3.67;;;;;;;;;;5029483;28;20239;-68
2022/01/07 00:50:53;;;;;;;7.03;4.60;;;;;;;;;;5029444;28;20272;-68
2022/01/07 00:53:20;;;;;;;8.73;3.87;;;;;;;;;;5030830;28;20673;-68
2022/01/07 00:55:48;;;;;;;9.27;4.47;;;;;;;;;;5029618;28;20237;-69
2022/01/07 00:58:14;;;;;;;6.70;3.73;;;;;;;;;;5029498;28;20213;-68
2022/01/07 01:00:41;;;;;;;6.33;4.57;;;;;;;;;;5031400;28;20229;-68
2022/01/07 01:03:07;;;;;;;8.23;4.60;;;;;;;;;;5029623;28;20712;-69
2022/01/07 01:05:35;;;;;;;21.80;3.83;;;;;;;;;;5029988;28;20698;-69
2022/01/07 01:08:02;;;;;;;8.67;4.47;;;;;;;;;;5030517;28;20230;-69
2022/01/07 01:10:28;;;;;;;5.70;3.60;;;;;;;;;;5030398;28;20234;-69
2022/01/07 01:12:56;;;;;;;8.23;4.57;;;;;;;;;;5029848;28;20239;-69
2022/01/07 01:15:26;;;;;;;6.17;4.03;;;;;;;;;;5029847;28;20227;-69
2022/01/07 01:17:54;;;;;;;11.77;6.20;;;;;;;;;;5029515;28;20648;-69
2022/01/07 01:20:21;;;;;;;8.33;5.13;;;;;;;;;;5029619;28;20838;-70
2022/01/07 01:22:48;;;;;;;9.60;5.57;;;;;;;;;;5031930;28;20237;-70
2022/01/07 01:25:15;;;;;;;9.37;5.23;;;;;;;;;;5030200;28;20226;-70
2022/01/07 01:27:41;;;;;;;13.03;6.37;;;;;;;;;;5030457;28;20206;-70
2022/01/07 01:30:17;;;;;;;10.80;6.33;;;;;;;;;;5029742;28;20260;-72
2022/01/07 01:32:44;;;;;;;9.33;6.10;;;;;;;;;;5028301;28;20708;-69
2022/01/07 01:35:12;;;;;;;5.93;4.30;;;;;;;;;;5029100;28;20307;-69
2022/01/07 01:37:38;;;;;;;8.00;6.20;;;;;;;;;;5029325;28;20724;-69
2022/01/07 01:40:06;;;;;;;11.43;6.17;;;;;;;;;;5029784;28;20772;-70
2022/01/07 01:42:33;;;;;;;7.37;4.93;;;;;;;;;;5029306;28;20296;-69
2022/01/07 01:44:59;;;;;;;10.17;6.63;;;;;;;;;;5029860;28;20211;-69
2022/01/07 01:47:27;;;;;;;10.27;5.47;;;;;;;;;;5030533;28;20797;-70
2022/01/07 01:49:53;;;;;;;11.27;7.53;;;;;;;;;;5029497;28;20214;-69
2022/01/07 01:52:20;;;;;;;12.67;7.13;;;;;;;;;;5029280;28;20282;-69
2022/01/07 01:54:47;;;;;;;10.47;6.50;;;;;;;;;;5029516;28;20234;-69
2022/01/07 01:57:14;;;;;;;9.03;6.30;;;;;;;;;;5029773;28;20393;-69
2022/01/07 01:59:41;;;;;;;10.53;6.70;;;;;;;;;;5029278;28;20211;-69
2022/01/07 02:02:07;;;;;;;6.90;4.60;;;;;;;;;;5028114;28;20227;-69
2022/01/07 02:04:37;;;;;;;8.77;6.63;;;;;;;;;;5030209;28;20280;-70
2022/01/07 02:07:04;;;;;;;9.33;5.70;;;;;;;;;;5028749;28;20294;-70
2022/01/07 02:09:35;;;;;;;8.53;6.30;;;;;;;;;;5028678;28;20235;-70
2022/01/07 02:12:02;;;;;;;7.27;4.27;;;;;;;;;;5027753;28;20218;-69
2022/01/07 02:14:29;;;;;;;13.97;8.00;;;;;;;;;;5028635;28;20222;-69
2022/01/07 02:16:55;;;;;;;11.00;7.37;;;;;;;;;;5030424;28;20368;-69
2022/01/07 02:19:22;;;;;;;8.70;6.87;;;;;;;;;;5028220;28;20215;-69
2022/01/07 02:21:49;;;;;;;8.90;7.17;;;;;;;;;;5029461;28;20245;-69
2022/01/07 02:24:16;;;;;;;6.80;4.70;;;;;;;;;;5029217;28;20210;-69
2022/01/07 02:26:42;;;;;;;12.90;6.40;;;;;;;;;;5027337;28;20272;-70
2022/01/07 02:29:09;;;;;;;7.87;5.40;;;;;;;;;;5027693;28;20269;-69
2022/01/07 02:31:35;;;;;;;8.23;5.77;;;;;;;;;;5026407;28;20223;-69
2022/01/07 02:34:02;;;;;;;8.13;6.47;;;;;;;;;;5027915;28;20210;-69
2022/01/07 02:36:28;;;;;;;7.00;4.97;;;;;;;;;;5029245;28;20273;-69
2022/01/07 02:38:56;;;;;;;15.37;7.97;;;;;;;;;;5029778;28;20215;-69
2022/01/07 02:41:23;;;;;;;11.33;8.13;;;;;;;;;;5028515;28;20252;-69
2022/01/07 02:43:49;;;;;;;8.43;5.00;;;;;;;;;;5027665;28;20235;-69
2022/01/07 02:46:16;;;;;;;11.30;6.90;;;;;;;;;;5027301;28;20248;-69
2022/01/07 02:48:42;;;;;;;7.57;6.40;;;;;;;;;;5028995;28;20211;-70
2022/01/07 02:51:09;;;;;;;8.40;6.33;;;;;;;;;;5027376;28;20211;-70
2022/01/07 02:53:35;;;;;;;8.20;6.33;;;;;;;;;;5028854;28;20242;-69
2022/01/07 02:56:04;;;;;;;8.53;7.53;;;;;;;;;;5028925;28;20296;-70
2022/01/07 02:58:30;;;;;;;7.53;5.80;;;;;;;;;;5027109;28;20280;-70
2022/01/07 03:00:57;;;;;;;8.83;7.63;;;;;;;;;;5027691;28;20218;-70
2022/01/07 03:03:24;;;;;;;7.37;5.63;;;;;;;;;;5027988;28;20293;-70
2022/01/07 03:05:51;;;;;;;8.03;7.20;;;;;;;;;;5029203;28;20308;-70
2022/01/07 03:08:17;;;;;;;7.70;5.37;;;;;;;;;;5028814;28;20746;-70
2022/01/07 03:10:43;;;;;;;10.87;7.33;;;;;;;;;;5028530;28;20230;-70
2022/01/07 03:13:11;;;;;;;10.27;7.90;;;;;;;;;;5026634;28;20244;-70
2022/01/07 03:15:38;;;;;;;8.83;7.13;;;;;;;;;;5028029;28;20217;-69
2022/01/07 03:18:06;;;;;;;9.67;7.27;;;;;;;;;;5028789;28;20231;-70
2022/01/07 03:20:38;;;;;;;9.13;6.60;;;;;;;;;;5027046;28;20276;-69
2022/01/07 03:23:04;;;;;;;8.43;6.50;;;;;;;;;;5029195;28;20238;-70
2022/01/07 03:25:31;;;;;;;8.90;7.30;;;;;;;;;;5027639;28;20693;-69
2022/01/07 03:27:57;;;;;;;9.47;6.43;;;;;;;;;;5028741;28;20219;-69
2022/01/07 03:30:25;;;;;;;9.70;6.60;;;;;;;;;;5026622;28;20633;-69
2022/01/07 03:32:52;;;;;;;5.63;4.60;;;;;;;;;;5025918;28;20235;-69
2022/01/07 03:35:18;;;;;;;7.10;4.80;;;;;;;;;;5024715;28;20642;-69
2022/01/07 03:37:47;;;;;;;10.50;7.20;;;;;;;;;;5028051;28;20296;-69
2022/01/07 03:40:14;;;;;;;5.80;4.93;;;;;;;;;;5026816;28;21117;-69
2022/01/07 03:42:41;;;;;;;7.30;6.23;;;;;;;;;;5027017;28;20226;-69
2022/01/07 03:45:09;;;;;;;8.93;6.93;;;;;;;;;;5026808;28;20218;-69
2022/01/07 03:47:38;;;;;;;10.83;7.87;;;;;;;;;;5027648;28;20289;-69
2022/01/07 03:50:06;;;;;;;9.27;6.23;;;;;;;;;;5027329;28;20207;-69
2022/01/07 03:52:33;;;;;;;8.33;6.43;;;;;;;;;;5029236;28;20332;-69
2022/01/07 03:54:59;;;;;;;7.90;5.97;;;;;;;;;;5032474;28;20280;-69
2022/01/07 03:57:26;;;;;;;11.37;6.80;;;;;;;;;;5031778;28;20280;-69
2022/01/07 03:59:52;;;;;;;6.23;5.63;;;;;;;;;;5031319;28;20884;-69
2022/01/07 04:02:19;;;;;;;6.33;5.73;;;;;;;;;;5031876;28;20553;-69
2022/01/07 04:04:47;;;;;;;8.10;6.93;;;;;;;;;;5032294;28;20209;-69
2022/01/07 04:07:13;;;;;;;8.73;6.73;;;;;;;;;;5030647;28;20210;-69
2022/01/07 04:09:40;;;;;;;8.43;6.07;;;;;;;;;;5031805;28;20234;-69
2022/01/07 04:12:07;;;;;;;7.77;6.27;;;;;;;;;;5030145;28;20250;-69
2022/01/07 04:14:33;;;;;;;7.80;6.00;;;;;;;;;;5029774;28;21423;-69
2022/01/07 04:17:00;;;;;;;6.97;6.30;;;;;;;;;;5030396;28;20238;-69
2022/01/07 04:19:27;;;;;;;7.57;6.60;;;;;;;;;;5030691;28;20211;-69
2022/01/07 04:21:54;;;;;;;6.70;6.03;;;;;;;;;;5029856;28;20618;-69
2022/01/07 04:24:21;;;;;;;6.47;5.43;;;;;;;;;;5030709;28;20309;-69
2022/01/07 04:26:47;;;;;;;6.77;4.93;;;;;;;;;;5029888;28;20732;-69
2022/01/07 04:29:14;;;;;;;5.60;4.23;;;;;;;;;;5030020;28;20703;-69
2022/01/07 04:31:40;;;;;;;7.77;7.00;;;;;;;;;;5029737;28;20239;-69
2022/01/07 04:34:06;;;;;;;8.37;7.00;;;;;;;;;;5031627;28;20223;-69
2022/01/07 04:36:33;;;;;;;7.57;6.50;;;;;;;;;;5028551;28;20222;-69
2022/01/07 04:39:01;;;;;;;6.37;5.23;;;;;;;;;;5031744;28;20211;-69
2022/01/07 04:41:27;;;;;;;7.90;5.60;;;;;;;;;;5029330;28;20238;-69
2022/01/07 04:43:54;;;;;;;6.57;5.87;;;;;;;;;;5029063;28;20215;-69
2022/01/07 04:46:20;;;;;;;5.17;4.67;;;;;;;;;;5031011;28;20618;-69
2022/01/07 04:48:47;;;;;;;6.80;6.20;;;;;;;;;;5030201;28;20624;-69
2022/01/07 04:51:13;;;;;;;6.57;5.57;;;;;;;;;;5030390;28;20314;-69
2022/01/07 04:53:40;;;;;;;7.97;6.20;;;;;;;;;;5029905;28;20214;-69
2022/01/07 04:56:07;;;;;;;7.63;6.40;;;;;;;;;;5030174;28;20231;-68
2022/01/07 04:58:34;;;;;;;6.57;5.57;;;;;;;;;;5030193;28;20268;-69
2022/01/07 05:01:00;;;;;;;4.97;4.53;;;;;;;;;;5030050;28;20214;-69
2022/01/07 05:03:27;;;;;;;5.07;4.63;;;;;;;;;;5029567;28;20235;-69
2022/01/07 05:06:03;;;;;;;4.00;3.70;;;;;;;;;;5030648;28;20576;-69
2022/01/07 05:08:29;;;;;;;5.67;5.17;;;;;;;;;;5030651;28;20737;-69
2022/01/07 05:10:56;;;;;;;4.37;3.97;;;;;;;;;;5031054;28;20308;-69
2022/01/07 05:13:24;;;;;;;4.37;3.97;;;;;;;;;;5028973;28;20280;-69
2022/01/07 05:15:51;;;;;;;5.87;5.37;;;;;;;;;;5029315;28;20305;-69
2022/01/07 05:18:17;;;;;;;6.20;5.60;;;;;;;;;;5030792;28;20238;-68
2022/01/07 05:20:46;;;;;;;6.40;5.50;;;;;;;;;;5028359;28;20214;-69
2022/01/07 05:23:13;;;;;;;5.43;4.93;;;;;;;;;;5028513;28;20329;-69
2022/01/07 05:25:39;;;;;;;5.87;5.33;;;;;;;;;;5030369;28;20234;-69
2022/01/07 05:28:06;;;;;;;7.27;6.57;;;;;;;;;;5029022;28;20258;-69
2022/01/07 05:30:34;;;;;;;4.82;4.38;;;;;;;;;;5028406;28;20451;-74
2022/01/07 05:33:00;;;;;;;7.30;6.53;;;;;;;;;;5031163;28;20308;-74
2022/01/07 05:35:29;;;;;;;7.20;6.50;;;;;;;;;;5029500;28;20265;-73
2022/01/07 05:37:55;;;;;;;6.60;6.00;;;;;;;;;;5031817;28;20595;-75
2022/01/07 05:40:22;;;;;;;6.97;5.47;;;;;;;;;;5031312;28;20297;-74
2022/01/07 05:42:48;;;;;;;10.17;8.10;;;;;;;;;;5030481;28;20217;-73
2022/01/07 05:45:15;;;;;;;8.47;6.07;;;;;;;;;;5028291;28;20730;-73
2022/01/07 05:47:42;;;;;;;7.10;6.40;;;;;;;;;;5030645;28;20253;-73
2022/01/07 05:50:11;;;;;;;9.57;8.67;;;;;;;;;;5029457;28;20770;-73
2022/01/07 05:52:38;;;;;;;9.77;8.77;;;;;;;;;;5030679;28;20671;-72
2022/01/07 05:55:05;;;;;;;8.67;7.87;;;;;;;;;;5031694;28;20226;-73
2022/01/07 05:57:32;;;;;;;9.57;8.67;;;;;;;;;;5028885;28;20233;-73
2022/01/07 05:59:59;;;;;;;10.53;9.53;;;;;;;;;;5030914;28;20211;-73
2022/01/07 06:02:26;;;;;;;9.37;8.43;;;;;;;;;;5029856;28;20223;-73
2022/01/07 06:04:53;;;;;;;10.23;8.93;;;;;;;;;;5027181;28;21023;-72
2022/01/07 06:07:20;;;;;;;9.70;8.67;;;;;;;;;;5029791;28;20308;-72
2022/01/07 06:09:47;;;;;;;11.73;10.53;;;;;;;;;;5029412;28;20234;-72
2022/01/07 06:12:13;;;;;;;11.53;8.17;;;;;;;;;;5028336;28;20317;-72
2022/01/07 06:14:39;;;;;;;11.70;10.70;;;;;;;;;;5028092;28;20214;-73
2022/01/07 06:17:08;;;;;;;12.47;10.73;;;;;;;;;;5028346;28;20238;-73
2022/01/07 06:19:34;;;;;;;10.00;9.00;;;;;;;;;;5031719;28;20680;-73
2022/01/07 06:22:03;;;;;;;10.03;8.97;;;;;;;;;;5029271;28;20210;-73
2022/01/07 06:24:29;;;;;;;11.97;10.77;;;;;;;;;;5031007;28;20284;-73
2022/01/07 06:26:56;;;;;;;12.47;11.37;;;;;;;;;;5027589;28;20207;-73
2022/01/07 06:29:23;;;;;;;12.87;10.17;;;;;;;;;;5028741;28;20293;-73
2022/01/07 06:31:49;;;;;;;11.93;10.83;;;;;;;;;;5029340;28;20720;-73
2022/01/07 06:34:16;;;;;;;14.90;12.80;;;;;;;;;;5028716;28;20283;-73
2022/01/07 06:36:42;;;;;;;14.70;13.30;;;;;;;;;;5030852;28;22664;-73
2022/01/07 06:39:11;;;;;;;13.70;12.30;;;;;;;;;;5029270;28;20958;-73
2022/01/07 06:41:37;;;;;;;15.37;13.93;;;;;;;;;;5030111;28;20250;-74
2022/01/07 06:44:04;;;;;;;13.60;12.03;;;;;;;;;;5028526;28;21626;-73
2022/01/07 06:46:31;;;;;;;14.70;12.70;;;;;;;;;;5029282;28;20223;-73
2022/01/07 06:48:57;;;;;;;15.97;14.37;;;;;;;;;;5028556;28;20214;-73
2022/01/07 06:51:23;;;;;;;14.17;12.80;;;;;;;;;;5031285;28;20206;-73
2022/01/07 06:53:50;;;;;;;12.87;10.80;;;;;;;;;;5029322;28;20638;-73
2022/01/07 06:56:18;;;;;;;8.47;7.57;;;;;;;;;;5027973;28;20235;-73
2022/01/07 06:58:44;;;;;;;15.57;13.50;;;;;;;;;;5030812;28;20773;-73
2022/01/07 07:01:10;;;;;;;13.63;10.80;;;;;;;;;;5027454;28;20276;-73
2022/01/07 07:03:39;;;;;;;13.63;12.17;;;;;;;;;;5029670;28;20211;-73
2022/01/07 07:06:06;;;;;;;16.17;14.47;;;;;;;;;;5028950;28;20642;-73
2022/01/07 07:08:32;;;;;;;17.30;14.60;;;;;;;;;;5027856;28;20211;-73
2022/01/07 07:10:59;;;;;;;11.93;10.73;;;;;;;;;;5027557;28;20660;-73
2022/01/07 07:13:26;;;;;;;18.67;15.70;;;;;;;;;;5026905;28;20250;-74
2022/01/07 07:15:53;;;;;;;15.60;13.13;;;;;;;;;;5026588;28;20872;-73
2022/01/07 07:18:19;;;;;;;17.63;14.40;;;;;;;;;;5027530;28;20247;-73
2022/01/07 07:20:46;;;;;;;19.40;17.37;;;;;;;;;;5026303;28;20245;-74
2022/01/07 07:23:12;;;;;;;18.13;15.30;;;;;;;;;;5026909;28;20682;-73
2022/01/07 07:25:39;;;;;;;13.90;11.57;;;;;;;;;;5027779;28;21043;-73
2022/01/07 07:28:05;;;;;;;20.47;17.07;;;;;;;;;;5028796;28;20265;-74
2022/01/07 07:30:36;;;;;;;18.13;16.27;;;;;;;;;;5031981;28;20285;-73
2022/01/07 07:33:28;;;;;;;16.87;15.20;;;;;;;;;;5031385;28;20225;-74
2022/01/07 07:38:35;;;;;;;18.77;14.53;;;;;;;;;;5030973;28;20920;-74
2022/01/07 07:41:02;;;;;;;14.77;12.33;;;;;;;;;;5028338;28;20234;-74
2022/01/07 07:43:28;;;;;;;20.80;18.20;;;;;;;;;;5029915;28;20268;-74
2022/01/07 07:45:56;;;;;;;17.07;14.10;;;;;;;;;;5029736;28;20207;-74
2022/01/07 07:48:22;;;;;;;22.87;17.33;;;;;;;;;;5032289;28;20279;-74
2022/01/07 07:50:49;;;;;;;17.33;15.37;;;;;;;;;;5031507;28;20789;-74
2022/01/07 07:53:15;;;;;;;13.73;10.83;;;;;;;;;;5030087;28;20577;-74
2022/01/07 07:55:43;;;;;;;19.77;17.67;;;;;;;;;;5030655;28;20230;-74
2022/01/07 07:58:10;;;;;;;19.33;16.90;;;;;;;;;;5028913;28;20243;-74
2022/01/07 08:00:36;;;;;;;21.53;19.33;;;;;;;;;;5029272;28;20215;-74
2022/01/07 08:03:04;;;;;;;22.70;15.00;;;;;;;;;;5031240;28;20235;-74
2022/01/07 08:05:31;;;;;;;20.63;16.67;;;;;;;;;;5030522;28;20274;-74
2022/01/07 08:07:59;;;;;;;17.63;15.73;;;;;;;;;;5030936;28;20257;-74
2022/01/07 08:10:26;;;;;;;19.33;16.37;;;;;;;;;;5030046;28;20227;-74
2022/01/07 08:13:14;;;;;;;20.73;15.03;;;;;;;;;;5028820;28;20234;-75
2022/01/07 08:15:58;;;;;;;19.83;13.83;;;;;;;;;;5028500;28;20214;-74
2022/01/07 08:18:26;;;;;;;20.60;16.00;;;;;;;;;;5029138;28;20231;-75
2022/01/07 08:20:52;;;;;;;18.57;15.93;;;;;;;;;;5029185;28;20218;-75
2022/01/07 08:23:20;;;;;;;19.03;15.47;;;;;;;;;;5028478;28;20219;-74
2022/01/07 08:25:46;;;;;;;19.00;16.97;;;;;;;;;;5030104;28;20982;-74
2022/01/07 08:28:14;;;;;;;18.50;14.77;;;;;;;;;;5028742;28;20215;-74
2022/01/07 08:31:00;;;;;;;18.87;16.00;;;;;;;;;;5027944;28;20716;-75
2022/01/07 08:36:14;;;;;;;19.47;11.67;;;;;;;;;;5030053;28;20274;-75
2022/01/07 08:38:40;;;;;;;22.80;15.73;;;;;;;;;;5028608;28;20246;-74
2022/01/07 08:41:07;;;;;;;17.53;15.10;;;;;;;;;;5029961;28;20746;-74
2022/01/07 08:43:34;;;;;;;19.37;16.87;;;;;;;;;;5027868;28;20215;-75
2022/01/07 08:46:01;;;;;;;17.93;14.23;;;;;;;;;;5028960;28;20949;-75
2022/01/07 08:48:29;;;;;;;20.50;16.10;;;;;;;;;;5026599;28;20230;-75
2022/01/07 08:50:56;;;;;;;19.23;15.73;;;;;;;;;;5027301;28;20207;-74
2022/01/07 08:53:22;;;;;;;17.10;14.77;;;;;;;;;;5027854;28;20207;-76
2022/01/07 08:55:49;;;;;;;18.90;13.87;;;;;;;;;;5027835;28;20321;-76
2022/01/07 08:58:16;;;;;;;17.57;13.83;;;;;;;;;;5028286;28;20329;-76
2022/01/07 09:00:43;;;;;;;15.37;9.77;;;;;;;;;;5028128;28;20215;-75
2022/01/07 09:03:09;;;;;;;16.20;11.43;;;;;;;;;;5029056;28;20694;-75
2022/01/07 09:05:37;;;;;;;11.50;8.03;;;;;;;;;;5029656;28;20297;-74
2022/01/07 09:08:06;;;;;;;5.23;4.03;;;;;;;;;;5028236;28;20217;-75
2022/01/07 09:10:33;;;;;;;7.90;3.13;;;;;;;;;;5028594;28;20686;-74
2022/01/07 09:13:00;;;;;;;4.57;2.60;;;;;;;;;;5028742;28;20235;-74
2022/01/07 09:15:26;;;;;;;2.47;2.20;;;;;;;;;;5029039;28;20930;-74
2022/01/07 09:17:52;;;;;;;3.47;2.23;;;;;;;;;;5028227;28;20242;-74
2022/01/07 09:20:20;;;;;;;6.57;2.90;;;;;;;;;;5029679;28;20219;-74
2022/01/07 09:22:49;;;;;;;5.33;3.10;;;;;;;;;;5028870;28;20210;-73
2022/01/07 09:25:15;;;;;;;7.53;4.20;;;;;;;;;;5027718;28;20273;-73
2022/01/07 09:27:42;;;;;;;8.77;2.90;;;;;;;;;;5028599;28;20203;-73
2022/01/07 09:30:10;;;;;;;5.43;2.87;;;;;;;;;;5029477;28;20210;-73
2022/01/07 09:32:37;;;;;;;4.37;3.07;;;;;;;;;;5028104;28;20305;-73
2022/01/07 09:35:04;;;;;;;5.33;4.00;;;;;;;;;;5027390;28;20218;-73
2022/01/07 09:37:30;;;;;;;7.03;5.40;;;;;;;;;;5028391;28;20219;-73
2022/01/07 09:40:00;;;;;;;8.67;5.73;;;;;;;;;;5027470;28;20227;-73
2022/01/07 09:42:27;;;;;;;10.43;9.33;;;;;;;;;;5029588;28;20568;-73
2022/01/07 09:44:53;;;;;;;15.77;11.37;;;;;;;;;;5028310;28;20543;-73
2022/01/07 09:47:20;;;;;;;12.83;11.50;;;;;;;;;;5028120;28;20235;-73
2022/01/07 09:49:46;;;;;;;17.83;14.80;;;;;;;;;;5027299;28;20272;-73
2022/01/07 09:52:13;;;;;;;17.47;14.07;;;;;;;;;;5027866;28;20219;-73
2022/01/07 09:54:40;;;;;;;16.30;12.87;;;;;;;;;;5028765;28;20240;-73
2022/01/07 09:57:09;;;;;;;17.07;12.43;;;;;;;;;;5028083;28;20207;-73
2022/01/07 09:59:36;;;;;;;14.97;12.40;;;;;;;;;;5025259;28;20699;-73
2022/01/07 10:02:05;;;;;;;15.23;11.60;;;;;;;;;;5030905;28;20226;-74
2022/01/07 10:04:33;;;;;;;13.87;9.83;;;;;;;;;;5029993;28;20213;-74
2022/01/07 10:07:11;;;;;;;15.73;9.53;;;;;;;;;;5028103;28;20268;-74
2022/01/07 10:09:37;;;;;;;11.63;7.87;;;;;;;;;;5029093;28;20232;-74
2022/01/07 10:12:06;;;;;;;8.63;6.00;;;;;;;;;;5026900;28;20219;-73
2022/01/07 10:14:36;;;;;;;5.50;3.53;;;;;;;;;;5028339;28;20298;-73
2022/01/07 10:17:04;;;;;;;5.23;2.77;;;;;;;;;;5025930;28;20231;-73
2022/01/07 10:19:37;;;;;;;4.60;1.97;;;;;;;;;;5027397;28;20226;-73
2022/01/07 10:22:07;;;;;;;1.60;0.93;;;;;;;;;;5029346;28;20210;-73
2022/01/07 10:24:52;;;;;;;2.03;1.20;;;;;;;;;;5028077;28;20268;-73
2022/01/07 10:27:20;;;;;;;1.97;0.80;;;;;;;;;;5026389;28;20213;-73
2022/01/07 10:29:47;;;;;;;1.03;0.97;;;;;;;;;;5027275;28;20199;-73
2022/01/07 10:32:32;;;;;;;1.83;1.00;;;;;;;;;;5025645;28;20231;-73
2022/01/07 10:35:07;;;;;;;4.60;1.50;;;;;;;;;;5031724;28;20214;-73
2022/01/07 10:37:34;;;;;;;2.80;1.00;;;;;;;;;;5027750;28;20229;-73
2022/01/07 10:40:01;;;;;;;3.90;1.03;;;;;;;;;;5026327;28;20234;-74
2022/01/07 10:42:28;;;;;;;3.23;1.07;;;;;;;;;;5027201;28;20754;-73
2022/01/07 10:45:00;;;;;;;3.40;1.20;;;;;;;;;;5026397;28;20298;-73
2022/01/07 10:47:28;;;;;;;2.80;0.80;;;;;;;;;;5026027;28;20242;-74
2022/01/07 10:50:13;;;;;;;2.60;0.97;;;;;;;;;;5027320;28;20214;-74
2022/01/07 10:52:39;;;;;;;6.63;1.57;;;;;;;;;;5028059;28;21168;-74
2022/01/07 10:55:11;;;;;;;3.03;1.00;;;;;;;;;;5026407;28;20226;-74
2022/01/07 10:57:39;;;;;;;3.87;1.03;;;;;;;;;;5027308;28;20223;-74
2022/01/07 11:00:10;;;;;;;4.10;1.50;;;;;;;;;;5025742;28;20255;-74
2022/01/07 11:02:37;;;;;;;3.97;1.17;;;;;;;;;;5029577;28;20313;-73
2022/01/07 11:05:04;;;;;;;4.07;1.30;;;;;;;;;;5030581;28;20217;-73
2022/01/07 11:07:31;;;;;;;3.67;1.10;;;;;;;;;;5031255;28;20333;-73
2022/01/07 11:09:58;;;;;;;5.63;1.40;;;;;;;;;;5030555;28;20246;-73
2022/01/07 11:12:25;;;;;;;2.47;1.30;;;;;;;;;;5031267;28;20922;-73
2022/01/07 11:14:52;;;;;;;4.17;1.07;;;;;;;;;;5030992;28;20301;-73
2022/01/07 11:17:21;;;;;;;4.17;0.83;;;;;;;;;;5029871;28;20843;-73
2022/01/07 11:19:52;;;;;;;3.67;0.80;;;;;;;;;;5032043;28;20349;-73
2022/01/07 11:22:19;;;;;;;3.77;1.07;;;;;;;;;;5030447;28;20293;-73
2022/01/07 11:24:50;;;;;;;2.60;1.00;;;;;;;;;;5030592;28;20234;-75
2022/01/07 11:27:20;;;;;;;3.13;1.10;;;;;;;;;;5030879;28;20242;-74
2022/01/07 11:29:53;;;;;;;5.17;1.20;;;;;;;;;;5032867;28;20863;-74
2022/01/07 11:32:32;;;;;;;3.23;1.37;;;;;;;;;;5029327;28;20246;-73
2022/01/07 11:35:48;;;;;;;5.00;1.80;;;;;;;;;;5031238;28;20215;-73
2022/01/07 11:38:38;;;;;;;3.47;1.77;;;;;;;;;;5029487;28;20210;-73
2022/01/07 11:41:09;;;;;;;3.60;1.87;;;;;;;;;;5029283;28;20234;-73
2022/01/07 11:43:39;;;;;;;3.13;1.67;;;;;;;;;;5031670;28;20225;-73
2022/01/07 11:46:25;;;;;;;4.37;2.80;;;;;;;;;;5031300;28;20276;-73
2022/01/07 11:48:52;;;;;;;4.47;2.30;;;;;;;;;;5032148;28;20257;-72
2022/01/07 11:51:19;;;;;;;7.10;3.73;;;;;;;;;;5030330;28;20264;-73
2022/01/07 11:54:08;;;;;;;5.83;3.33;;;;;;;;;;5030112;28;20278;-72
2022/01/07 11:56:35;;;;;;;7.07;3.93;;;;;;;;;;5030525;28;20238;-72
2022/01/07 11:59:14;;;;;;;7.87;4.07;;;;;;;;;;5031893;28;20262;-72
2022/01/07 12:01:41;;;;;;;7.87;4.73;;;;;;;;;;5030887;28;20777;-72
2022/01/07 12:04:27;;;;;;;10.03;5.73;;;;;;;;;;5031564;28;20250;-73
2022/01/07 12:06:54;;;;;;;9.50;5.90;;;;;;;;;;5031074;28;20636;-72
2022/01/07 12:09:29;;;;;;;12.30;7.23;;;;;;;;;;5029907;28;20968;-72
2022/01/07 12:11:58;;;;;;;9.83;6.80;;;;;;;;;;5031050;28;20202;-73
2022/01/07 12:14:27;;;;;;;13.10;7.73;;;;;;;;;;5027096;28;20223;-73
2022/01/07 12:16:56;;;;;;;9.60;6.93;;;;;;;;;;5031207;28;20284;-74
2022/01/07 12:20:02;;;;;;;10.43;6.37;;;;;;;;;;5030575;28;20281;-73
2022/01/07 12:22:28;;;;;;;11.13;7.07;;;;;;;;;;5028455;28;20302;-73
2022/01/07 12:25:02;;;;;;;12.70;7.27;;;;;;;;;;5028969;28;20572;-73
2022/01/07 12:27:28;;;;;;;7.77;5.77;;;;;;;;;;5029424;28;20596;-74
2022/01/07 12:29:56;;;;;;;9.50;6.67;;;;;;;;;;5030001;28;20280;-73
2022/01/07 12:32:30;;;;;;;8.67;5.27;;;;;;;;;;5028969;28;20238;-74
2022/01/07 12:34:56;;;;;;;10.73;5.97;;;;;;;;;;5029345;28;20257;-74
2022/01/07 12:37:25;;;;;;;11.37;5.03;;;;;;;;;;5030013;28;20234;-74
2022/01/07 12:39:54;;;;;;;9.03;4.30;;;;;;;;;;5030102;28;20925;-74
2022/01/07 12:42:22;;;;;;;9.83;3.90;;;;;;;;;;5028787;28;20605;-74
2022/01/07 12:44:52;;;;;;;8.70;3.83;;;;;;;;;;5030589;28;20622;-74
2022/01/07 12:47:20;;;;;;;10.33;3.63;;;;;;;;;;5029634;28;21026;-74
2022/01/07 12:49:48;;;;;;;8.40;3.23;;;;;;;;;;5030246;28;20199;-74
2022/01/07 12:52:18;;;;;;;11.07;3.40;;;;;;;;;;5029061;28;20304;-74
2022/01/07 12:54:53;;;;;;;9.30;4.13;;;;;;;;;;5030185;28;20208;-75
2022/01/07 12:57:27;;;;;;;7.77;4.33;;;;;;;;;;5028340;28;20209;-74
2022/01/07 13:00:12;;;;;;;7.87;4.07;;;;;;;;;;5030498;28;20945;-74
2022/01/07 13:02:41;;;;;;;8.93;4.13;;;;;;;;;;5030447;28;20638;-74
2022/01/07 13:05:25;;;;;;;7.13;4.20;;;;;;;;;;5028607;28;20321;-74
2022/01/07 13:07:53;;;;;;;8.80;4.20;;;;;;;;;;5028889;28;20593;-74
2022/01/07 13:10:23;;;;;;;10.40;4.43;;;;;;;;;;5028049;28;20289;-74
2022/01/07 13:12:55;;;;;;;11.17;4.57;;;;;;;;;;5029828;28;20316;-75
2022/01/07 13:15:37;;;;;;;11.50;3.97;;;;;;;;;;5030051;28;20887;-75
2022/01/07 13:18:27;;;;;;;11.40;4.33;;;;;;;;;;5027492;28;20234;-74
2022/01/07 13:20:56;;;;;;;8.67;3.73;;;;;;;;;;5029666;28;20642;-74
2022/01/07 13:23:24;;;;;;;13.23;4.00;;;;;;;;;;5028309;28;20727;-74
2022/01/07 13:25:52;;;;;;;7.60;3.93;;;;;;;;;;5029598;28;20314;-74
2022/01/07 13:28:32;;;;;;;9.10;4.30;;;;;;;;;;5028098;28;20632;-74
2022/01/07 13:30:58;;;;;;;9.50;3.13;;;;;;;;;;5028764;28;20774;-74
2022/01/07 13:33:27;;;;;;;7.23;2.60;;;;;;;;;;5028535;28;20672;-74
2022/01/07 13:35:55;;;;;;;11.70;3.07;;;;;;;;;;5029085;28;20207;-75
2022/01/07 13:38:22;;;;;;;8.20;2.37;;;;;;;;;;5028431;28;20298;-74
2022/01/07 13:40:49;;;;;;;9.33;2.63;;;;;;;;;;5030418;28;20330;-74
2022/01/07 13:43:17;;;;;;;9.13;2.40;;;;;;;;;;5030500;28;20211;-75
2022/01/07 13:45:45;;;;;;;8.27;2.50;;;;;;;;;;5033263;28;20211;-74
2022/01/07 13:48:14;;;;;;;6.50;1.80;;;;;;;;;;5029276;28;20654;-74
2022/01/07 13:50:42;;;;;;;7.53;2.00;;;;;;;;;;5029803;28;20207;-75
2022/01/07 13:53:16;;;;;;;8.60;2.13;;;;;;;;;;5027772;28;20275;-75
2022/01/07 13:55:43;;;;;;;6.03;2.00;;;;;;;;;;5027005;28;20232;-74
2022/01/07 13:58:12;;;;;;;6.77;2.27;;;;;;;;;;5027444;28;20210;-74
2022/01/07 14:00:39;;;;;;;7.77;2.10;;;;;;;;;;5028361;28;20318;-74
2022/01/07 14:03:08;;;;;;;8.60;2.10;;;;;;;;;;5027128;28;20238;-74
2022/01/07 14:05:35;;;;;;;11.87;2.47;;;;;;;;;;5026921;28;20303;-74
2022/01/07 14:08:06;;;;;;;5.10;1.70;;;;;;;;;;5027452;28;21014;-75
2022/01/07 14:10:35;;;;;;;6.63;2.00;;;;;;;;;;5028479;28;20223;-74
2022/01/07 14:13:05;;;;;;;7.90;1.73;;;;;;;;;;5029375;28;20234;-75
2022/01/07 14:15:38;;;;;;;4.60;1.50;;;;;;;;;;5029424;28;20218;-75
2022/01/07 14:18:09;;;;;;;9.83;2.10;;;;;;;;;;5027304;28;20320;-75
2022/01/07 14:20:41;;;;;;;8.77;1.53;;;;;;;;;;5029470;28;20576;-73
2022/01/07 14:23:11;;;;;;;6.03;1.50;;;;;;;;;;5027307;28;20663;-73
2022/01/07 14:25:38;;;;;;;8.33;1.53;;;;;;;;;;5026815;28;20239;-74
2022/01/07 14:28:05;;;;;;;7.33;2.43;;;;;;;;;;5025795;28;20215;-74
2022/01/07 14:30:31;;;;;;;6.40;1.23;;;;;;;;;;5027566;28;20265;-74
2022/01/07 14:32:57;;;;;;;5.10;1.40;;;;;;;;;;5027122;28;20227;-74
2022/01/07 14:35:25;;;;;;;5.13;1.13;;;;;;;;;;5029072;28;20269;-74
2022/01/07 14:37:52;;;;;;;4.10;1.27;;;;;;;;;;5025612;28;20308;-74
2022/01/07 14:40:18;;;;;;;7.27;1.27;;;;;;;;;;5027393;28;20702;-73
2022/01/07 14:42:44;;;;;;;4.13;1.20;;;;;;;;;;5026422;28;20325;-74
2022/01/07 14:45:11;;;;;;;3.60;1.33;;;;;;;;;;5027488;28;20211;-74
2022/01/07 14:47:38;;;;;;;2.93;1.43;;;;;;;;;;5026339;28;20859;-74
2022/01/07 14:50:06;;;;;;;8.00;1.80;;;;;;;;;;5027813;28;20265;-74